createdAt,value
2019-05-20T00:01:24.545Z,25.47
2019-05-20T00:03:52.606Z,27.10
2019-05-20T00:06:21.515Z,26.77
2019-05-20T00:08:49.591Z,27.63
2019-05-20T00:11:17.723Z,28.20
2019-05-20T00:13:45.877Z,27.47
2019-05-20T00:16:14.003Z,26.77
2019-05-20T00:18:42.569Z,25.93
2019-05-20T00:21:10.734Z,28.67
2019-05-20T00:23:39.073Z,27.67
2019-05-20T00:26:07.109Z,26.83
2019-05-20T00:28:35.136Z,25.43
2019-05-20T00:31:03.338Z,25.80
2019-05-20T00:33:32.355Z,25.73
2019-05-20T00:36:00.436Z,25.57
2019-05-20T00:38:29.489Z,25.20
2019-05-20T00:40:57.696Z,23.40
2019-05-20T00:43:25.783Z,22.80
2019-05-20T00:45:54.345Z,22.50
2019-05-20T00:48:22.510Z,21.27
2019-05-20T00:50:50.569Z,22.77
2019-05-20T00:53:18.794Z,23.90
2019-05-20T00:55:46.819Z,23.00
2019-05-20T00:58:16.183Z,22.00
2019-05-20T01:00:45.495Z,22.00
2019-05-20T01:03:13.690Z,22.23
2019-05-20T01:05:41.817Z,20.77
2019-05-20T01:08:09.948Z,20.77
2019-05-20T01:10:38.350Z,18.50
2019-05-20T01:13:06.506Z,19.63
2019-05-20T01:15:34.947Z,18.23
2019-05-20T01:18:03.040Z,17.60
2019-05-20T01:20:31.353Z,17.80
2019-05-20T01:22:59.563Z,17.70
2019-05-20T01:25:27.668Z,17.70
2019-05-20T01:27:55.903Z,18.87
2019-05-20T01:30:24.534Z,18.47
2019-05-20T01:32:53.399Z,17.27
2019-05-20T01:35:21.463Z,16.83
2019-05-20T01:37:49.499Z,17.00
2019-05-20T01:40:17.544Z,17.67
2019-05-20T01:42:45.583Z,16.80
2019-05-20T01:45:13.857Z,17.97
2019-05-20T01:47:42.819Z,18.13
2019-05-20T01:50:11.719Z,17.80
2019-05-20T01:52:40.606Z,18.03
2019-05-20T01:55:08.925Z,18.60
2019-05-20T01:57:36.992Z,19.87
2019-05-20T02:00:06.216Z,19.47
2019-05-20T02:02:35.461Z,18.70
2019-05-20T02:05:04.018Z,20.10
2019-05-20T02:07:32.098Z,18.87
2019-05-20T02:10:00.671Z,20.50
2019-05-20T02:12:28.701Z,19.97
2019-05-20T02:15:05.772Z,19.97
2019-05-20T02:17:33.821Z,19.37
2019-05-20T02:20:01.883Z,19.97
2019-05-20T02:22:30.942Z,19.87
2019-05-20T02:25:00.142Z,18.00
2019-05-20T02:27:28.692Z,19.87
2019-05-20T02:29:56.879Z,19.07
2019-05-20T02:32:25.572Z,20.43
2019-05-20T02:34:53.630Z,19.73
2019-05-20T02:37:21.746Z,19.33
2019-05-20T02:39:50.043Z,19.60
2019-05-20T02:42:18.357Z,19.53
2019-05-20T02:44:48.019Z,19.37
2019-05-20T02:47:17.519Z,20.00
2019-05-20T02:52:55.089Z,19.13
2019-05-20T02:55:24.263Z,18.47
2019-05-20T02:57:53.944Z,18.73
2019-05-20T03:00:22.161Z,18.67
2019-05-20T03:02:50.184Z,18.60
2019-05-20T03:05:18.326Z,17.53
2019-05-20T03:07:46.351Z,18.07
2019-05-20T03:10:14.406Z,17.47
2019-05-20T03:12:42.613Z,22.03
2019-05-20T03:15:10.943Z,16.70
2019-05-20T03:17:40.005Z,16.80
2019-05-20T03:20:08.326Z,16.63
2019-05-20T03:22:39.876Z,17.87
2019-05-20T03:25:09.122Z,17.70
2019-05-20T03:27:37.297Z,16.57
2019-05-20T03:30:05.796Z,17.33
2019-05-20T03:32:34.010Z,15.60
2019-05-20T03:35:02.919Z,14.70
2019-05-20T03:37:30.920Z,14.83
2019-05-20T03:39:59.010Z,15.17
2019-05-20T03:42:27.317Z,14.30
2019-05-20T03:44:56.283Z,14.30
2019-05-20T03:47:25.402Z,14.77
2019-05-20T03:49:53.421Z,15.47
2019-05-20T03:52:22.913Z,14.60
2019-05-20T03:54:52.646Z,15.80
2019-05-20T03:57:20.881Z,13.87
2019-05-20T03:59:49.114Z,13.67
2019-05-20T04:02:18.259Z,13.47
2019-05-20T04:05:01.243Z,13.20
2019-05-20T04:07:17.268Z,13.00
2019-05-20T04:09:45.528Z,12.67
2019-05-20T04:12:13.636Z,13.60
2019-05-20T04:14:41.723Z,14.30
2019-05-20T04:17:09.778Z,13.83
2019-05-20T04:19:37.796Z,13.27
2019-05-20T04:22:06.863Z,12.30
2019-05-20T04:24:35.000Z,13.37
2019-05-20T04:27:03.066Z,13.17
2019-05-20T04:29:31.169Z,12.70
2019-05-20T04:32:00.266Z,13.00
2019-05-20T04:34:28.522Z,12.73
2019-05-20T04:36:57.690Z,12.77
2019-05-20T04:39:25.969Z,14.97
2019-05-20T04:41:54.021Z,13.03
2019-05-20T04:44:22.205Z,12.97
2019-05-20T04:46:50.254Z,13.23
2019-05-20T04:49:18.432Z,12.83
2019-05-20T04:51:46.598Z,13.20
2019-05-20T04:54:14.656Z,13.30
2019-05-20T04:56:52.027Z,13.27
2019-05-20T04:59:20.426Z,12.53
2019-05-20T05:01:48.811Z,13.83
2019-05-20T05:04:16.994Z,12.80
2019-05-20T05:06:45.055Z,13.50
2019-05-20T05:09:15.599Z,12.37
2019-05-20T05:11:43.151Z,13.70
2019-05-20T05:14:11.322Z,14.03
2019-05-20T05:16:39.657Z,12.90
2019-05-20T05:19:08.014Z,13.27
2019-05-20T05:21:36.166Z,13.33
2019-05-20T05:24:05.347Z,14.17
2019-05-20T05:26:34.016Z,12.63
2019-05-20T05:29:02.772Z,12.10
2019-05-20T05:31:30.777Z,12.17
2019-05-20T05:33:59.875Z,12.13
2019-05-20T05:36:28.033Z,12.83
2019-05-20T05:38:56.619Z,11.37
2019-05-20T05:41:24.864Z,12.13
2019-05-20T05:43:53.021Z,11.77
2019-05-20T05:46:21.082Z,12.90
2019-05-20T05:48:49.215Z,13.50
2019-05-20T05:51:17.867Z,12.30
2019-05-20T05:53:45.861Z,11.13
2019-05-20T05:56:14.254Z,10.93
2019-05-20T05:58:42.281Z,11.63
2019-05-20T06:01:10.427Z,10.17
2019-05-20T06:03:38.539Z,10.80
2019-05-20T06:06:12.275Z,10.83
2019-05-20T06:08:44.833Z,10.73
2019-05-20T06:11:14.271Z,11.37
2019-05-20T06:13:42.570Z,11.40
2019-05-20T06:16:47.282Z,11.30
2019-05-20T06:19:15.420Z,10.03
2019-05-20T06:21:43.578Z,9.10
2019-05-20T06:24:12.092Z,9.10
2019-05-20T06:26:40.249Z,11.00
2019-05-20T06:29:08.931Z,8.80
2019-05-20T06:31:37.616Z,9.00
2019-05-20T06:34:12.166Z,8.63
2019-05-20T06:36:44.411Z,9.13
2019-05-20T06:39:13.562Z,8.73
2019-05-20T06:41:42.179Z,8.77
2019-05-20T06:44:11.284Z,9.60
2019-05-20T06:46:39.538Z,8.70
2019-05-20T06:49:07.563Z,8.67
2019-05-20T06:51:35.836Z,10.20
2019-05-20T06:54:04.727Z,9.17
2019-05-20T06:56:33.053Z,8.40
2019-05-20T06:59:01.714Z,9.43
2019-05-20T07:01:29.953Z,8.67
2019-05-20T07:03:57.971Z,9.40
2019-05-20T07:06:42.835Z,9.37
2019-05-20T07:08:56.502Z,9.13
2019-05-20T07:11:25.878Z,8.73
2019-05-20T07:13:54.558Z,9.13
2019-05-20T07:16:23.638Z,9.70
2019-05-20T07:18:51.678Z,8.93
2019-05-20T07:21:19.765Z,8.90
2019-05-20T07:23:47.805Z,8.73
2019-05-20T07:26:17.081Z,8.70
2019-05-20T07:28:45.133Z,9.13
2019-05-20T07:31:14.338Z,9.00
2019-05-20T07:33:43.263Z,9.40
2019-05-20T07:36:11.658Z,8.10
2019-05-20T07:38:39.729Z,8.77
2019-05-20T07:41:07.827Z,10.30
2019-05-20T07:43:35.864Z,9.90
2019-05-20T07:46:04.019Z,9.40
2019-05-20T07:48:33.795Z,8.20
2019-05-20T07:51:03.026Z,8.40
2019-05-20T07:53:31.659Z,8.70
2019-05-20T07:56:04.200Z,8.40
2019-05-20T07:58:33.894Z,8.63
2019-05-20T08:04:12.367Z,7.90
2019-05-20T08:06:40.515Z,8.57
2019-05-20T08:09:09.617Z,7.53
2019-05-20T08:11:37.981Z,7.87
2019-05-20T08:14:06.330Z,8.13
2019-05-20T08:16:35.216Z,8.90
2019-05-20T08:19:04.437Z,8.97
2019-05-20T08:21:32.569Z,8.23
2019-05-20T08:27:22.993Z,10.33
2019-05-20T08:29:51.497Z,9.83
2019-05-20T08:32:20.704Z,9.67
2019-05-20T08:34:48.696Z,9.60
2019-05-20T08:37:16.769Z,10.10
2019-05-20T08:39:44.833Z,10.10
2019-05-20T08:42:14.653Z,9.17
2019-05-20T08:44:43.207Z,10.80
2019-05-20T08:47:11.617Z,8.77
2019-05-20T08:49:39.828Z,8.50
2019-05-20T08:52:07.878Z,9.20
2019-05-20T08:54:39.957Z,9.70
2019-05-20T08:57:05.967Z,9.43
2019-05-20T08:59:34.051Z,9.37
2019-05-20T09:02:02.284Z,8.53
2019-05-20T09:04:30.380Z,8.83
2019-05-20T09:06:58.430Z,8.73
2019-05-20T09:12:36.702Z,10.33
2019-05-20T09:15:05.019Z,9.53
2019-05-20T09:17:33.163Z,9.73
2019-05-20T09:20:01.221Z,9.13
2019-05-20T09:22:29.237Z,9.10
2019-05-20T09:24:57.541Z,8.37
2019-05-20T09:27:25.586Z,8.13
2019-05-20T09:29:53.753Z,8.90
2019-05-20T09:32:21.803Z,9.97
2019-05-20T09:34:50.060Z,8.17
2019-05-20T09:37:18.475Z,9.10
2019-05-20T09:39:47.506Z,9.30
2019-05-20T09:42:15.672Z,8.90
2019-05-20T09:44:43.768Z,8.67
2019-05-20T09:47:11.845Z,8.40
2019-05-20T09:49:39.919Z,8.23
2019-05-20T09:52:08.098Z,8.83
2019-05-20T09:54:36.136Z,8.80
2019-05-20T09:57:04.462Z,8.77
2019-05-20T09:59:42.861Z,9.43
2019-05-20T10:02:03.552Z,9.37
2019-05-20T10:04:31.539Z,9.47
2019-05-20T10:07:00.955Z,10.10
2019-05-20T10:09:29.015Z,9.87
2019-05-20T10:11:57.189Z,12.60
2019-05-20T10:14:25.221Z,9.20
2019-05-20T10:16:53.681Z,11.27
2019-05-20T10:19:21.832Z,10.03
2019-05-20T10:21:51.641Z,9.30
2019-05-20T10:24:21.445Z,9.87
2019-05-20T10:26:49.494Z,9.90
2019-05-20T10:29:18.308Z,10.70
2019-05-20T10:34:56.789Z,9.33
2019-05-20T10:37:25.201Z,10.63
2019-05-20T10:39:53.229Z,10.47
2019-05-20T10:42:21.408Z,9.83
2019-05-20T10:44:49.852Z,11.67
2019-05-20T10:47:17.921Z,10.17
2019-05-20T10:49:45.963Z,10.80
2019-05-20T10:52:14.211Z,11.23
2019-05-20T10:54:42.353Z,11.93
2019-05-20T10:57:10.881Z,12.17
2019-05-20T10:59:39.343Z,11.77
2019-05-20T11:02:07.984Z,11.50
2019-05-20T11:04:36.060Z,11.30
2019-05-20T11:07:04.665Z,10.80
2019-05-20T11:09:33.460Z,11.37
2019-05-20T11:12:02.011Z,11.00
2019-05-20T11:14:30.346Z,10.80
2019-05-20T11:16:59.051Z,12.80
2019-05-20T11:19:27.662Z,10.20
2019-05-20T11:21:56.694Z,10.30
2019-05-20T11:24:24.838Z,10.63
2019-05-20T11:26:54.127Z,10.20
2019-05-20T11:29:23.008Z,10.73
2019-05-20T11:31:51.244Z,10.43
2019-05-20T11:34:20.105Z,10.93
2019-05-20T11:36:49.097Z,9.90
2019-05-20T11:39:31.218Z,10.60
2019-05-20T11:41:53.244Z,8.63
2019-05-20T11:44:16.831Z,8.97
2019-05-20T11:46:44.857Z,9.77
2019-05-20T11:49:13.107Z,8.83
2019-05-20T11:51:42.018Z,8.67
2019-05-20T11:54:11.514Z,8.83
2019-05-20T11:56:40.064Z,8.97
2019-05-20T11:59:08.234Z,9.63
2019-05-20T12:01:36.357Z,10.20
2019-05-20T12:04:04.697Z,8.57
2019-05-20T12:06:32.735Z,8.73
2019-05-20T12:09:00.901Z,8.80
2019-05-20T12:11:29.792Z,9.77
2019-05-20T12:13:58.251Z,8.47
2019-05-20T12:16:26.362Z,8.97
2019-05-20T12:18:54.530Z,9.57
2019-05-20T12:21:22.607Z,8.00
2019-05-20T12:23:50.652Z,9.03
2019-05-20T12:26:22.627Z,10.53
2019-05-20T12:28:49.249Z,8.60
2019-05-20T12:34:27.137Z,8.70
2019-05-20T12:40:06.443Z,9.27
2019-05-20T12:42:24.226Z,8.90
2019-05-20T12:44:52.427Z,11.70
2019-05-20T12:47:20.805Z,10.03
2019-05-20T12:49:49.150Z,9.73
2019-05-20T12:52:17.301Z,10.70
2019-05-20T12:54:46.151Z,8.97
2019-05-20T12:57:14.317Z,11.47
2019-05-20T12:59:42.895Z,10.07
2019-05-20T13:05:20.486Z,10.70
2019-05-20T13:07:48.560Z,9.40
2019-05-20T13:10:29.183Z,9.80
2019-05-20T13:12:47.239Z,9.70
2019-05-20T13:15:15.480Z,10.70
2019-05-20T13:17:52.870Z,9.93
2019-05-20T13:20:21.242Z,11.33
2019-05-20T13:22:49.462Z,10.63
2019-05-20T13:25:17.526Z,10.83
2019-05-20T13:27:54.726Z,11.50
2019-05-20T13:30:23.411Z,12.17
2019-05-20T13:33:09.917Z,12.30
2019-05-20T13:35:38.299Z,11.30
2019-05-20T13:38:06.470Z,11.90
2019-05-20T13:40:45.882Z,10.77
2019-05-20T13:43:04.821Z,12.37
2019-05-20T13:45:32.839Z,12.13
2019-05-20T13:48:00.918Z,11.73
2019-05-20T13:50:28.961Z,12.70
2019-05-20T13:52:57.278Z,11.47
2019-05-20T13:55:26.096Z,11.83
2019-05-20T13:57:54.278Z,11.27
2019-05-20T14:00:22.444Z,11.10
2019-05-20T14:02:50.620Z,15.57
2019-05-20T14:05:18.723Z,11.33
2019-05-20T14:07:46.809Z,11.27
2019-05-20T14:10:14.865Z,11.47
2019-05-20T14:12:42.908Z,10.13
2019-05-20T14:15:10.996Z,11.17
2019-05-20T14:17:39.017Z,11.33
2019-05-20T14:20:07.296Z,11.10
2019-05-20T14:22:35.349Z,10.63
2019-05-20T14:25:03.410Z,11.50
2019-05-20T14:27:31.556Z,11.37
2019-05-20T14:29:59.678Z,10.93
2019-05-20T14:32:27.847Z,11.97
2019-05-20T14:34:55.935Z,11.27
2019-05-20T14:37:24.399Z,12.30
2019-05-20T14:39:52.588Z,11.50
2019-05-20T14:42:20.614Z,10.77
2019-05-20T14:44:48.686Z,11.33
2019-05-20T14:47:16.753Z,11.07
2019-05-20T14:49:44.972Z,11.97
2019-05-20T14:52:13.005Z,10.13
2019-05-20T14:54:41.091Z,11.20
2019-05-20T14:57:09.139Z,10.47
2019-05-20T14:59:37.627Z,11.13
2019-05-20T15:02:05.835Z,10.53
2019-05-20T15:04:33.870Z,11.73
2019-05-20T15:07:01.947Z,10.83
2019-05-20T15:09:29.972Z,11.40
2019-05-20T15:11:58.285Z,11.40
2019-05-20T15:14:28.207Z,13.03
2019-05-20T15:16:56.394Z,11.93
2019-05-20T15:19:24.419Z,11.20
2019-05-20T15:21:52.479Z,11.90
2019-05-20T15:24:20.528Z,12.27
2019-05-20T15:26:48.951Z,11.30
2019-05-20T15:29:27.576Z,11.87
2019-05-20T15:31:47.346Z,11.97
2019-05-20T15:34:15.658Z,11.73
2019-05-20T15:36:44.049Z,11.13
2019-05-20T15:39:12.213Z,11.03
2019-05-20T15:41:40.381Z,12.00
2019-05-20T15:44:08.437Z,11.90
2019-05-20T15:46:37.575Z,11.20
2019-05-20T15:49:06.090Z,12.90
2019-05-20T15:51:34.227Z,12.07
2019-05-20T15:54:02.383Z,12.23
2019-05-20T15:56:30.551Z,11.57
2019-05-20T15:58:58.636Z,12.53
2019-05-20T16:01:26.831Z,11.83
2019-05-20T16:03:54.874Z,12.63
2019-05-20T16:06:23.661Z,12.70
2019-05-20T16:08:52.826Z,13.73
2019-05-20T16:11:21.845Z,13.00
2019-05-20T16:13:49.973Z,13.13
2019-05-20T16:16:18.085Z,13.77
2019-05-20T16:18:46.327Z,12.60
2019-05-20T16:21:14.457Z,11.97
2019-05-20T16:23:42.679Z,11.97
2019-05-20T16:26:11.153Z,12.43
2019-05-20T16:28:39.588Z,14.23
2019-05-20T16:31:07.954Z,12.70
2019-05-20T16:33:36.479Z,11.20
2019-05-20T16:36:05.755Z,13.60
2019-05-20T16:38:34.149Z,11.73
2019-05-20T16:41:02.395Z,10.27
2019-05-20T16:43:30.619Z,10.13
2019-05-20T16:45:58.813Z,11.67
2019-05-20T16:48:28.289Z,12.00
2019-05-20T16:50:56.511Z,11.93
2019-05-20T16:53:24.908Z,10.43
2019-05-20T16:55:53.018Z,11.07
2019-05-20T16:58:21.379Z,11.23
2019-05-20T17:00:49.777Z,11.10
2019-05-20T17:04:06.114Z,10.93
2019-05-20T17:06:34.236Z,10.90
2019-05-20T17:09:02.795Z,11.43
2019-05-20T17:11:31.562Z,11.23
2019-05-20T17:13:59.707Z,10.27
2019-05-20T17:16:27.838Z,10.50
2019-05-20T17:18:55.927Z,10.10
2019-05-20T17:21:57.452Z,9.67
2019-05-20T17:24:26.315Z,9.77
2019-05-20T17:26:55.367Z,10.07
2019-05-20T17:29:24.039Z,9.17
2019-05-20T17:31:52.767Z,10.37
2019-05-20T17:34:20.804Z,9.57
2019-05-20T17:36:49.261Z,10.43
2019-05-20T17:39:17.422Z,9.90
2019-05-20T17:41:46.141Z,11.20
2019-05-20T17:44:15.356Z,10.43
2019-05-20T17:46:43.441Z,9.50
2019-05-20T17:49:12.092Z,10.70
2019-05-20T17:51:43.309Z,10.10
2019-05-20T17:54:12.132Z,9.77
2019-05-20T17:56:41.063Z,9.50
2019-05-20T17:59:09.286Z,9.93
2019-05-20T18:01:39.023Z,12.60
2019-05-20T18:04:07.505Z,10.20
2019-05-20T18:06:36.650Z,8.27
2019-05-20T18:09:07.409Z,9.17
2019-05-20T18:11:35.539Z,9.47
2019-05-20T18:14:04.501Z,9.77
2019-05-20T18:16:33.393Z,10.47
2019-05-20T18:19:02.469Z,9.27
2019-05-20T18:21:30.943Z,9.17
2019-05-20T18:24:01.140Z,9.53
2019-05-20T18:26:29.528Z,8.97
2019-05-20T18:28:58.250Z,8.73
2019-05-20T18:31:32.510Z,8.10
2019-05-20T18:33:56.735Z,9.00
2019-05-20T18:36:24.810Z,9.70
2019-05-20T18:38:53.554Z,8.33
2019-05-20T18:41:22.513Z,9.00
2019-05-20T18:43:51.680Z,10.40
2019-05-20T18:46:19.861Z,9.90
2019-05-20T18:48:48.289Z,10.37
2019-05-20T18:51:16.381Z,10.40
2019-05-20T18:53:45.190Z,13.17
2019-05-20T18:56:13.736Z,11.17
2019-05-20T18:58:41.823Z,10.50
2019-05-20T19:01:10.160Z,10.20
2019-05-20T19:03:38.913Z,10.60
2019-05-20T19:06:07.940Z,9.97
2019-05-20T19:08:36.520Z,10.07
2019-05-20T19:11:05.379Z,10.33
2019-05-20T19:13:34.279Z,10.50
2019-05-20T19:16:02.555Z,10.37
2019-05-20T19:18:31.713Z,10.40
2019-05-20T19:21:00.668Z,10.07
2019-05-20T19:23:29.469Z,10.73
2019-05-20T19:25:57.823Z,9.70
2019-05-20T19:28:26.942Z,9.57
2019-05-20T19:30:55.649Z,10.30
2019-05-20T19:33:40.679Z,10.50
2019-05-20T19:52:24.484Z,10.43
2019-05-20T19:58:35.153Z,11.17
2019-05-20T20:01:42.852Z,11.07
2019-05-20T20:04:32.028Z,11.40
2019-05-20T20:07:44.766Z,12.07
2019-05-20T20:10:44.505Z,11.17
2019-05-20T20:13:37.159Z,10.97
2019-05-20T20:16:32.586Z,9.80
2019-05-20T20:19:34.949Z,10.00
2019-05-20T21:07:23.249Z,5.03
2019-05-20T21:30:06.509Z,4.60
2019-05-20T21:30:22.394Z,5.13
2019-05-20T21:52:39.385Z,5.00
2019-05-20T22:24:28.018Z,4.47
2019-05-20T22:31:01.317Z,4.63
2019-05-20T22:33:42.794Z,4.53
2019-05-20T22:39:48.193Z,4.13
2019-05-20T22:49:01.866Z,4.30
2019-05-20T22:55:04.491Z,4.40
2019-05-20T22:57:40.799Z,4.40
2019-05-20T23:00:39.488Z,5.60
2019-05-20T23:03:56.388Z,4.63
2019-05-20T23:06:42.830Z,5.00
2019-05-20T23:15:48.985Z,4.23
2019-05-20T23:21:55.143Z,5.10
2019-05-20T23:24:54.629Z,4.80
2019-05-20T23:31:00.705Z,4.50
2019-05-20T23:34:10.297Z,4.27
2019-05-20T23:37:17.465Z,6.37
2019-05-20T23:40:07.387Z,4.83
2019-05-20T23:43:01.783Z,4.70
2019-05-20T23:48:56.335Z,4.70
2019-05-20T23:51:42.092Z,4.00
2019-05-20T23:55:03.151Z,5.07
2019-05-20T23:57:50.916Z,3.90
